createdAt,value
2022-10-05T00:00:31.579Z,1.00
2022-10-05T00:03:36.980Z,1.13
2022-10-05T00:06:38.757Z,1.25
2022-10-05T00:09:41.122Z,1.33
2022-10-05T00:12:44.629Z,1.23
2022-10-05T00:15:48.137Z,1.25
2022-10-05T00:18:52.681Z,1.70
2022-10-05T00:21:56.982Z,1.17
2022-10-05T00:25:00.938Z,1.42
2022-10-05T00:28:03.002Z,1.40
2022-10-05T00:31:14.886Z,1.30
2022-10-05T00:34:17.677Z,1.33
2022-10-05T00:37:19.604Z,1.48
2022-10-05T00:40:35.359Z,1.42
2022-10-05T00:43:58.511Z,1.45
2022-10-05T00:50:50.863Z,1.15
2022-10-05T00:54:05.493Z,1.40
2022-10-05T00:57:29.273Z,1.40
2022-10-05T01:00:35.153Z,1.25
2022-10-05T01:03:49.654Z,1.20
2022-10-05T01:07:04.171Z,1.75
2022-10-05T01:10:13.042Z,1.58
2022-10-05T01:13:25.352Z,1.35
2022-10-05T01:16:31.285Z,1.63
2022-10-05T01:20:10.658Z,1.42
2022-10-05T01:23:34.363Z,1.45
2022-10-05T01:26:49.185Z,1.35
2022-10-05T01:29:59.281Z,1.50
2022-10-05T01:33:12.033Z,1.10
2022-10-05T01:36:24.969Z,1.35
2022-10-05T01:39:34.927Z,1.67
2022-10-05T01:42:46.237Z,1.83
2022-10-05T01:45:59.361Z,1.52
2022-10-05T01:49:17.577Z,1.63
2022-10-05T01:52:30.881Z,1.50
2022-10-05T01:55:39.519Z,1.95
2022-10-05T01:58:48.330Z,1.98
2022-10-05T02:01:58.300Z,1.98
2022-10-05T02:05:08.192Z,1.80
2022-10-05T02:08:14.951Z,1.98
2022-10-05T02:11:16.925Z,1.98
2022-10-05T02:14:23.137Z,2.00
2022-10-05T02:17:32.158Z,1.88
2022-10-05T02:20:37.395Z,1.90
2022-10-05T02:23:42.807Z,1.92
2022-10-05T02:26:46.860Z,1.65
2022-10-05T02:29:53.000Z,1.92
2022-10-05T02:33:00.079Z,1.92
2022-10-05T02:36:10.910Z,1.88
2022-10-05T02:39:20.902Z,1.55
2022-10-05T02:42:28.899Z,1.98
2022-10-05T02:45:41.441Z,2.20
2022-10-05T02:48:52.977Z,2.53
2022-10-05T02:51:59.812Z,1.88
2022-10-05T02:55:10.247Z,1.60
2022-10-05T02:58:15.157Z,1.63
2022-10-05T03:01:24.805Z,1.88
2022-10-05T03:04:38.645Z,1.67
2022-10-05T03:07:47.953Z,1.90
2022-10-05T03:11:01.165Z,1.63
2022-10-05T03:14:10.126Z,1.70
2022-10-05T03:17:15.883Z,1.77
2022-10-05T03:20:30.393Z,1.70
2022-10-05T03:23:42.023Z,1.80
2022-10-05T03:26:53.813Z,2.25
2022-10-05T03:30:02.333Z,2.33
2022-10-05T03:33:14.796Z,2.13
2022-10-05T03:36:24.366Z,2.47
2022-10-05T03:39:33.920Z,2.80
2022-10-05T03:42:51.921Z,2.58
2022-10-05T03:46:02.149Z,2.05
2022-10-05T03:49:14.102Z,2.50
2022-10-05T03:52:23.127Z,2.65
2022-10-05T03:55:30.966Z,2.15
2022-10-05T03:58:40.815Z,2.22
2022-10-05T04:01:51.532Z,2.17
2022-10-05T04:08:07.541Z,2.20
2022-10-05T04:11:13.501Z,2.08
2022-10-05T04:14:21.547Z,1.90
2022-10-05T04:17:34.393Z,1.88
2022-10-05T04:20:42.033Z,1.95
2022-10-05T04:23:55.305Z,2.70
2022-10-05T04:27:00.698Z,2.33
2022-10-05T04:30:11.609Z,1.77
2022-10-05T04:33:15.910Z,1.70
2022-10-05T04:36:24.660Z,1.63
2022-10-05T04:39:41.169Z,2.20
2022-10-05T04:42:50.102Z,2.00
2022-10-05T04:46:12.396Z,2.25
2022-10-05T04:49:27.071Z,2.65
2022-10-05T04:52:37.205Z,2.00
2022-10-05T04:55:51.520Z,2.42
2022-10-05T04:59:10.539Z,3.03
2022-10-05T05:02:21.864Z,2.13
2022-10-05T05:05:31.911Z,2.08
2022-10-05T05:08:50.793Z,2.40
2022-10-05T05:12:17.045Z,1.98
2022-10-05T05:15:36.243Z,2.65
2022-10-05T05:19:05.169Z,2.25
2022-10-05T05:22:14.138Z,2.22
2022-10-05T05:25:24.951Z,2.35
2022-10-05T05:28:37.380Z,2.53
2022-10-05T05:31:47.116Z,2.28
2022-10-05T05:35:03.804Z,2.80
2022-10-05T05:38:18.694Z,2.70
2022-10-05T05:41:30.427Z,2.92
2022-10-05T05:44:41.421Z,2.75
2022-10-05T05:47:51.970Z,3.15
2022-10-05T05:50:59.679Z,2.47
2022-10-05T05:54:26.583Z,2.28
2022-10-05T05:57:35.997Z,2.83
2022-10-05T06:00:46.523Z,2.92
2022-10-05T06:03:54.045Z,2.60
2022-10-05T06:06:58.153Z,2.70
2022-10-05T06:10:05.622Z,3.17
2022-10-05T06:13:26.476Z,2.92
2022-10-05T06:16:34.090Z,2.90
2022-10-05T06:19:38.042Z,2.80
2022-10-05T06:22:44.651Z,2.63
2022-10-05T06:25:58.698Z,3.25
2022-10-05T06:29:05.340Z,3.63
2022-10-05T06:32:21.346Z,3.65
2022-10-05T06:35:38.219Z,3.15
2022-10-05T06:38:53.906Z,4.05
2022-10-05T06:42:10.550Z,3.53
2022-10-05T06:45:41.669Z,3.47
2022-10-05T06:49:29.291Z,3.28
2022-10-05T06:53:20.203Z,3.97
2022-10-05T06:56:29.713Z,4.30
2022-10-05T06:59:38.825Z,4.20
2022-10-05T07:02:45.652Z,4.13
2022-10-05T07:06:11.900Z,3.70
2022-10-05T07:09:25.618Z,3.80
2022-10-05T07:12:45.240Z,3.20
2022-10-05T07:15:56.870Z,3.60
2022-10-05T07:19:11.094Z,3.90
2022-10-05T07:22:37.432Z,3.47
2022-10-05T07:25:46.241Z,3.47
2022-10-05T07:28:53.766Z,3.50
2022-10-05T07:32:04.170Z,3.63
2022-10-05T07:35:33.398Z,3.90
2022-10-05T07:38:43.060Z,3.67
2022-10-05T07:41:52.850Z,3.75
2022-10-05T07:45:02.281Z,3.75
2022-10-05T07:48:12.264Z,3.30
2022-10-05T07:51:26.901Z,3.80
2022-10-05T07:54:36.541Z,3.58
2022-10-05T07:57:48.891Z,3.75
2022-10-05T08:01:08.095Z,3.55
2022-10-05T08:04:16.585Z,3.90
2022-10-05T08:07:18.668Z,2.85
2022-10-05T08:10:31.760Z,3.17
2022-10-05T08:13:42.329Z,3.53
2022-10-05T08:16:48.442Z,2.90
2022-10-05T08:19:56.519Z,4.07
2022-10-05T08:23:03.109Z,3.75
2022-10-05T08:26:17.501Z,3.17
2022-10-05T08:29:27.370Z,3.20
2022-10-05T08:32:33.034Z,3.08
2022-10-05T08:35:40.267Z,3.00
2022-10-05T08:38:42.486Z,2.95
2022-10-05T08:42:10.926Z,2.90
2022-10-05T08:45:50.930Z,2.80
2022-10-05T08:49:12.636Z,2.83
2022-10-05T08:52:28.980Z,2.63
2022-10-05T08:55:41.144Z,2.60
2022-10-05T08:59:08.257Z,2.85
2022-10-05T09:02:20.802Z,2.13
2022-10-05T09:05:37.766Z,2.58
2022-10-05T09:09:02.714Z,2.67
2022-10-05T09:12:21.957Z,2.20
2022-10-05T09:15:44.469Z,2.28
2022-10-05T09:19:01.315Z,2.50
2022-10-05T09:22:15.558Z,2.28
2022-10-05T09:25:26.033Z,2.15
2022-10-05T09:28:34.396Z,2.15
2022-10-05T09:31:59.879Z,2.30
2022-10-05T09:35:21.103Z,2.40
2022-10-05T09:38:33.553Z,2.20
2022-10-05T09:42:11.557Z,2.28
2022-10-05T09:45:38.639Z,2.05
2022-10-05T09:49:12.135Z,2.03
2022-10-05T09:52:39.778Z,1.40
2022-10-05T09:56:09.311Z,1.83
2022-10-05T09:59:42.202Z,2.03
2022-10-05T10:03:11.349Z,2.30
2022-10-05T10:06:38.989Z,2.35
2022-10-05T10:09:53.874Z,2.58
2022-10-05T10:13:19.649Z,1.70
2022-10-05T10:16:37.804Z,1.83
2022-10-05T10:20:11.990Z,2.30
2022-10-05T10:23:35.777Z,1.70
2022-10-05T10:27:05.525Z,2.20
2022-10-05T10:30:27.653Z,1.92
2022-10-05T10:34:13.314Z,1.98
2022-10-05T10:37:36.666Z,1.83
2022-10-05T10:40:50.769Z,1.77
2022-10-05T10:44:23.082Z,1.80
2022-10-05T10:47:48.659Z,1.85
2022-10-05T10:51:17.397Z,1.77
2022-10-05T10:57:57.810Z,1.45
2022-10-05T11:01:15.017Z,1.75
2022-10-05T11:04:44.361Z,1.60
2022-10-05T11:08:18.447Z,1.63
2022-10-05T11:11:36.171Z,1.75
2022-10-05T11:15:11.777Z,1.58
2022-10-05T11:18:20.535Z,1.35
2022-10-05T11:21:31.680Z,1.40
2022-10-05T11:25:19.744Z,1.40
2022-10-05T11:28:40.133Z,1.15
2022-10-05T11:32:15.463Z,1.30
2022-10-05T11:35:46.226Z,1.20
2022-10-05T11:39:11.427Z,1.20
2022-10-05T11:42:49.047Z,1.08
2022-10-05T11:46:10.635Z,0.93
2022-10-05T11:49:26.509Z,0.95
2022-10-05T11:52:38.572Z,1.02
2022-10-05T11:55:45.508Z,1.35
2022-10-05T11:58:54.146Z,1.00
2022-10-05T12:02:05.135Z,1.00
2022-10-05T12:05:15.890Z,1.20
2022-10-05T12:08:28.583Z,1.10
2022-10-05T12:11:47.682Z,1.08
2022-10-05T12:14:57.611Z,1.27
2022-10-05T12:18:08.251Z,0.88
2022-10-05T12:21:17.467Z,0.98
2022-10-05T12:24:29.473Z,1.08
2022-10-05T12:27:35.992Z,0.90
2022-10-05T12:31:00.315Z,0.80
2022-10-05T12:34:11.198Z,1.00
2022-10-05T12:37:32.706Z,0.68
2022-10-05T12:40:42.004Z,1.02
2022-10-05T12:43:54.889Z,0.93
2022-10-05T12:47:03.830Z,0.77
2022-10-05T12:50:19.270Z,1.00
2022-10-05T12:53:32.945Z,0.73
2022-10-05T12:56:44.774Z,0.82
2022-10-05T12:59:54.510Z,0.75
2022-10-05T13:03:01.627Z,0.73
2022-10-05T13:06:14.122Z,1.02
2022-10-05T13:09:23.611Z,1.00
2022-10-05T13:12:38.388Z,1.00
2022-10-05T13:15:49.765Z,0.90
2022-10-05T13:19:02.269Z,1.00
2022-10-05T13:22:20.613Z,0.90
2022-10-05T13:25:30.111Z,0.70
2022-10-05T13:28:42.124Z,1.10
2022-10-05T13:31:47.905Z,0.77
2022-10-05T13:35:06.690Z,0.93
2022-10-05T13:38:27.482Z,0.98
2022-10-05T13:41:39.438Z,0.80
2022-10-05T13:44:48.881Z,1.00
2022-10-05T13:48:01.907Z,1.08
2022-10-05T13:51:12.874Z,0.70
2022-10-05T13:54:22.893Z,1.00
2022-10-05T13:57:35.625Z,1.20
2022-10-05T14:00:46.635Z,0.95
2022-10-05T14:04:04.650Z,1.05
2022-10-05T14:07:25.093Z,0.90
2022-10-05T14:10:34.164Z,0.90
2022-10-05T14:13:49.068Z,0.93
2022-10-05T14:16:54.437Z,1.13
2022-10-05T14:20:03.001Z,1.00
2022-10-05T14:23:14.733Z,1.05
2022-10-05T14:26:31.312Z,1.02
2022-10-05T14:29:35.873Z,1.20
2022-10-05T14:32:52.865Z,1.02
2022-10-05T14:35:56.543Z,1.00
2022-10-05T14:39:02.193Z,0.95
2022-10-05T14:42:14.773Z,0.80
2022-10-05T14:45:19.783Z,0.82
2022-10-05T14:48:23.725Z,0.70
2022-10-05T14:51:31.813Z,0.80
2022-10-05T14:54:46.900Z,0.93
2022-10-05T14:58:02.869Z,0.93
2022-10-05T15:01:14.811Z,0.73
2022-10-05T15:04:30.264Z,0.80
2022-10-05T15:07:38.900Z,0.80
2022-10-05T15:10:43.302Z,0.90
2022-10-05T15:13:48.550Z,0.80
2022-10-05T15:16:52.826Z,0.80
2022-10-05T15:20:05.105Z,1.10
2022-10-05T15:23:24.516Z,1.08
2022-10-05T15:26:42.611Z,0.80
2022-10-05T15:30:03.328Z,1.77
2022-10-05T15:33:13.919Z,0.80
2022-10-05T15:36:20.611Z,1.10
2022-10-05T15:39:32.694Z,1.00
2022-10-05T15:42:38.209Z,1.00
2022-10-05T15:45:53.070Z,0.93
2022-10-05T15:49:08.392Z,0.90
2022-10-05T15:52:23.699Z,1.17
2022-10-05T15:55:35.133Z,1.05
2022-10-05T15:58:50.975Z,1.20
2022-10-05T16:02:00.759Z,1.08
2022-10-05T16:05:17.462Z,0.90
2022-10-05T16:08:55.682Z,1.10
2022-10-05T16:12:15.663Z,1.27
2022-10-05T16:15:28.352Z,1.40
2022-10-05T16:18:47.308Z,1.10
2022-10-05T16:21:58.093Z,1.02
2022-10-05T16:25:11.288Z,1.10
2022-10-05T16:28:29.304Z,1.40
2022-10-05T16:31:37.394Z,1.38
2022-10-05T16:34:56.241Z,1.42
2022-10-05T16:38:10.380Z,1.27
2022-10-05T16:41:20.185Z,1.10
2022-10-05T16:44:31.379Z,1.10
2022-10-05T16:47:43.653Z,1.00
2022-10-05T16:50:56.235Z,1.10
2022-10-05T16:54:11.994Z,0.93
2022-10-05T16:57:22.731Z,1.08
2022-10-05T17:00:26.946Z,1.15
2022-10-05T17:03:41.350Z,1.15
2022-10-05T17:07:35.094Z,1.20
2022-10-05T17:10:50.340Z,1.00
2022-10-05T17:14:16.674Z,1.13
2022-10-05T17:17:48.973Z,0.90
2022-10-05T17:21:01.098Z,1.08
2022-10-05T17:24:20.227Z,1.30
2022-10-05T17:27:32.784Z,1.13
2022-10-05T17:30:49.038Z,1.08
2022-10-05T17:34:26.409Z,1.33
2022-10-05T17:37:35.741Z,1.30
2022-10-05T17:40:38.935Z,1.10
2022-10-05T17:44:01.333Z,1.00
2022-10-05T17:47:08.267Z,1.10
2022-10-05T17:50:30.669Z,1.30
2022-10-05T17:53:56.080Z,1.30
2022-10-05T17:57:22.726Z,1.10
2022-10-05T18:01:04.243Z,1.10
2022-10-05T18:04:30.773Z,1.00
2022-10-05T18:07:34.106Z,1.15
2022-10-05T18:10:41.183Z,1.25
2022-10-05T18:13:46.491Z,1.48
2022-10-05T18:16:57.173Z,1.52
2022-10-05T18:20:15.130Z,1.20
2022-10-05T18:23:30.130Z,1.13
2022-10-05T18:26:40.285Z,1.60
2022-10-05T18:30:09.017Z,1.20
2022-10-05T18:33:49.437Z,1.40
2022-10-05T18:37:16.630Z,1.20
2022-10-05T18:40:36.590Z,1.20
2022-10-05T18:43:47.168Z,1.10
2022-10-05T18:46:55.335Z,1.02
2022-10-05T18:50:08.847Z,1.00
2022-10-05T18:53:26.131Z,1.15
2022-10-05T18:56:34.332Z,1.00
2022-10-05T18:59:46.557Z,1.00
2022-10-05T19:02:51.215Z,0.80
2022-10-05T19:05:59.523Z,0.85
2022-10-05T19:09:28.336Z,1.05
2022-10-05T19:12:44.258Z,0.85
2022-10-05T19:15:54.082Z,0.80
2022-10-05T19:19:09.210Z,0.85
2022-10-05T19:22:18.578Z,0.88
2022-10-05T19:25:37.014Z,0.80
2022-10-05T19:28:45.342Z,0.90
2022-10-05T19:31:53.194Z,0.75
2022-10-05T19:35:05.717Z,0.88
2022-10-05T19:38:21.413Z,0.68
2022-10-05T19:41:32.521Z,0.80
2022-10-05T19:44:52.548Z,0.80
2022-10-05T19:48:11.765Z,0.70
2022-10-05T19:51:20.447Z,0.50
2022-10-05T19:54:30.648Z,0.70
2022-10-05T19:57:33.843Z,0.63
2022-10-05T20:00:36.809Z,0.60
2022-10-05T20:03:40.937Z,0.50
2022-10-05T20:06:42.668Z,0.63
2022-10-05T20:09:54.335Z,0.55
2022-10-05T20:12:59.024Z,0.55
2022-10-05T20:16:36.466Z,0.70
2022-10-05T20:19:57.336Z,0.60
2022-10-05T20:23:21.816Z,0.60
2022-10-05T20:27:01.508Z,0.35
2022-10-05T20:30:05.845Z,0.60
2022-10-05T20:36:13.459Z,0.60
2022-10-05T20:39:15.860Z,0.50
2022-10-05T20:42:18.810Z,1.15
2022-10-05T20:45:21.970Z,0.50
2022-10-05T20:48:24.226Z,0.50
2022-10-05T20:51:28.782Z,0.55
2022-10-05T20:54:30.985Z,0.45
2022-10-05T20:57:32.790Z,0.40
2022-10-05T21:00:54.544Z,0.65
2022-10-05T21:03:56.266Z,0.57
2022-10-05T21:06:57.903Z,0.50
2022-10-05T21:09:59.678Z,0.85
2022-10-05T21:13:02.754Z,0.60
2022-10-05T21:16:12.739Z,0.50
2022-10-05T21:19:15.458Z,0.40
2022-10-05T21:22:17.103Z,0.50
2022-10-05T21:25:18.763Z,0.50
2022-10-05T21:28:22.072Z,0.52
2022-10-05T21:31:25.665Z,0.50
2022-10-05T21:34:29.325Z,0.60
2022-10-05T21:37:30.946Z,0.60
2022-10-05T21:40:32.718Z,0.70
2022-10-05T21:43:34.427Z,0.70
2022-10-05T21:46:39.024Z,0.50
2022-10-05T21:49:41.529Z,0.63
2022-10-05T21:52:43.331Z,0.60
2022-10-05T21:55:47.097Z,0.63
2022-10-05T21:58:49.981Z,0.60
2022-10-05T22:01:53.052Z,0.70
2022-10-05T22:04:54.705Z,0.63
2022-10-05T22:07:56.389Z,0.70
2022-10-05T22:10:59.162Z,0.50
2022-10-05T22:14:04.085Z,0.80
2022-10-05T22:17:36.138Z,0.68
2022-10-05T22:20:38.294Z,0.57
2022-10-05T22:23:40.863Z,0.77
2022-10-05T22:26:45.839Z,0.73
2022-10-05T22:29:47.781Z,0.75
2022-10-05T22:32:50.825Z,0.70
2022-10-05T22:35:52.790Z,0.88
2022-10-05T22:38:54.451Z,0.88
2022-10-05T22:41:56.459Z,0.93
2022-10-05T22:44:58.519Z,0.90
2022-10-05T22:48:01.661Z,0.90
2022-10-05T22:51:04.434Z,0.65
2022-10-05T22:54:06.300Z,0.90
2022-10-05T22:57:07.940Z,0.80
2022-10-05T23:00:12.125Z,0.90
2022-10-05T23:03:16.417Z,0.73
2022-10-05T23:06:20.323Z,0.65
2022-10-05T23:09:22.365Z,0.80
2022-10-05T23:12:24.109Z,0.82
2022-10-05T23:15:26.211Z,0.77
2022-10-05T23:18:29.599Z,1.05
2022-10-05T23:21:31.948Z,0.73
2022-10-05T23:24:34.793Z,0.85
2022-10-05T23:27:37.478Z,0.68
2022-10-05T23:30:39.203Z,0.90
2022-10-05T23:33:42.358Z,0.88
2022-10-05T23:36:44.014Z,0.93
2022-10-05T23:39:45.747Z,1.00
2022-10-05T23:42:47.552Z,0.80
2022-10-05T23:45:49.430Z,0.80
2022-10-05T23:48:53.196Z,0.90
2022-10-05T23:51:54.869Z,0.93
2022-10-05T23:54:56.539Z,1.05
2022-10-05T23:57:58.279Z,0.90
